Time;durP1;ratioP1;P1;durP2;ratioP2;P2;SDS_P1;SDS_P2;PMS_P1;PMS_P2;Temp;Humidity;BMP_temperature;BMP_pressure;BME280_temperature;BME280_humidity;BME280_pressure;Samples;Min_cycle;Max_cycle;Signal;HPM_P1;HPM_P2
2023/10/28 00:00:44;;;;;;;0.10;0.10;;;11.00;99.90;;;;;;5071953;28;20274;-79
2023/10/28 00:03:10;;;;;;;0.10;0.10;;;11.10;99.90;;;;;;5071220;28;20231;-79
2023/10/28 00:05:35;;;;;;;0.10;0.10;;;11.20;99.90;;;;;;5070415;28;20191;-78
2023/10/28 00:08:03;;;;;;;0.00;0.00;;;11.10;99.90;;;;;;5071416;28;20547;-78
2023/10/28 00:10:32;;;;;;;0.10;0.10;;;11.00;99.90;;;;;;5069147;28;20208;-78
2023/10/28 00:12:59;;;;;;;0.10;0.10;;;11.00;99.90;;;;;;5070905;28;20181;-78
2023/10/28 00:15:25;;;;;;;0.10;0.10;;;11.00;99.90;;;;;;5086315;28;20189;-78
2023/10/28 00:17:51;;;;;;;0.10;0.10;;;11.10;99.90;;;;;;5069544;28;20183;-78
2023/10/28 00:20:17;;;;;;;0.10;0.10;;;11.00;99.90;;;;;;5070120;28;20219;-78
2023/10/28 00:22:47;;;;;;;0.10;0.10;;;11.10;99.90;;;;;;5070832;28;20231;-79
2023/10/28 00:25:14;;;;;;;0.00;0.00;;;10.90;99.90;;;;;;5069274;28;20242;-78
2023/10/28 00:27:41;;;;;;;0.00;0.00;;;10.90;99.90;;;;;;5069151;28;20178;-78
2023/10/28 00:30:10;;;;;;;0.10;0.10;;;11.10;99.90;;;;;;5070358;28;20203;-78
2023/10/28 00:32:39;;;;;;;0.10;0.10;;;11.20;99.90;;;;;;5070394;28;20208;-78
2023/10/28 00:35:08;;;;;;;0.10;0.10;;;11.20;99.90;;;;;;5067800;28;20181;-79
2023/10/28 00:37:37;;;;;;;0.10;0.10;;;11.30;99.90;;;;;;5068843;28;20268;-79
2023/10/28 00:40:07;;;;;;;0.10;0.10;;;11.30;99.90;;;;;;5070397;28;20205;-79
2023/10/28 00:42:36;;;;;;;0.10;0.10;;;11.50;99.90;;;;;;5069608;28;20219;-78
2023/10/28 00:45:08;;;;;;;0.10;0.10;;;11.50;99.90;;;;;;5069417;28;20197;-78
2023/10/28 00:47:44;;;;;;;0.10;0.10;;;11.60;99.90;;;;;;5070398;28;20699;-78
2023/10/28 00:50:14;;;;;;;0.10;0.10;;;11.70;99.90;;;;;;5069331;28;20242;-78
2023/10/28 00:52:43;;;;;;;0.10;0.10;;;11.80;99.90;;;;;;5086510;28;20181;-79
2023/10/28 00:55:10;;;;;;;0.10;0.10;;;11.80;99.90;;;;;;5068105;28;20181;-79
2023/10/28 00:57:37;;;;;;;0.10;0.10;;;11.90;99.90;;;;;;5068860;28;20177;-79
2023/10/28 01:00:03;;;;;;;0.10;0.10;;;11.90;99.90;;;;;;5063278;28;20204;-78
2023/10/28 01:02:28;;;;;;;0.10;0.10;;;11.90;99.90;;;;;;5068047;28;20242;-78
2023/10/28 01:04:54;;;;;;;0.10;0.10;;;11.90;99.90;;;;;;5069043;28;20325;-78
2023/10/28 01:07:20;;;;;;;0.10;0.10;;;12.00;99.90;;;;;;5068894;28;20184;-79
2023/10/28 01:09:47;;;;;;;0.10;0.10;;;12.00;99.90;;;;;;5065067;28;20201;-78
2023/10/28 01:12:13;;;;;;;0.10;0.10;;;12.10;99.90;;;;;;5068358;28;20386;-79
2023/10/28 01:14:40;;;;;;;0.10;0.10;;;12.10;99.90;;;;;;5069439;28;20173;-78
2023/10/28 01:17:06;;;;;;;0.10;0.10;;;12.10;99.90;;;;;;5069843;28;20263;-78
2023/10/28 01:19:34;;;;;;;0.00;0.00;;;12.20;99.90;;;;;;5069182;28;20279;-78
2023/10/28 01:22:00;;;;;;;0.00;0.00;;;12.20;99.90;;;;;;5069223;28;20258;-79
2023/10/28 01:24:25;;;;;;;0.00;0.00;;;12.20;99.90;;;;;;5069817;28;20181;-78
2023/10/28 01:26:51;;;;;;;0.10;0.10;;;12.20;99.90;;;;;;5071701;28;20350;-78
2023/10/28 01:29:16;;;;;;;0.10;0.10;;;12.20;99.90;;;;;;5063204;28;20607;-77
2023/10/28 01:31:42;;;;;;;0.10;0.10;;;12.20;99.90;;;;;;5068663;28;20268;-76
2023/10/28 01:34:07;;;;;;;0.10;0.10;;;12.20;99.90;;;;;;5068677;28;20173;-77
2023/10/28 01:36:34;;;;;;;0.10;0.10;;;12.20;99.90;;;;;;5067881;28;20222;-77
2023/10/28 01:38:59;;;;;;;0.10;0.10;;;12.20;99.90;;;;;;5065072;28;20185;-77
2023/10/28 01:41:25;;;;;;;0.10;0.10;;;12.20;99.90;;;;;;5062768;28;20209;-77
2023/10/28 01:43:50;;;;;;;0.10;0.10;;;12.20;99.90;;;;;;5067848;28;20284;-77
2023/10/28 01:46:16;;;;;;;0.10;0.10;;;12.20;99.90;;;;;;5069975;28;20185;-77
2023/10/28 01:48:41;;;;;;;0.07;0.07;;;12.20;99.90;;;;;;5066276;28;20184;-77
2023/10/28 01:51:08;;;;;;;0.10;0.10;;;12.20;99.90;;;;;;5068521;28;20209;-77
2023/10/28 01:53:34;;;;;;;0.10;0.10;;;12.10;99.90;;;;;;5068925;28;20185;-77
2023/10/28 01:55:59;;;;;;;0.00;0.00;;;12.20;99.90;;;;;;5070274;28;20184;-77
2023/10/28 01:58:25;;;;;;;0.10;0.10;;;12.10;99.90;;;;;;5066215;28;20189;-77
2023/10/28 02:00:50;;;;;;;0.10;0.10;;;12.10;99.90;;;;;;5064088;28;20193;-77
2023/10/28 02:03:16;;;;;;;0.10;0.10;;;12.10;99.90;;;;;;5061387;28;20679;-77
2023/10/28 02:05:41;;;;;;;0.07;0.07;;;12.10;99.90;;;;;;5067933;28;20289;-77
2023/10/28 02:08:07;;;;;;;0.03;0.03;;;12.00;99.90;;;;;;5067551;28;20227;-78
2023/10/28 02:10:34;;;;;;;0.10;0.10;;;12.00;99.90;;;;;;5060159;28;20236;-77
2023/10/28 02:12:59;;;;;;;0.10;0.10;;;12.00;99.90;;;;;;5064505;28;20184;-77
2023/10/28 02:15:25;;;;;;;0.10;0.10;;;11.80;99.90;;;;;;5068037;28;20280;-77
2023/10/28 02:17:51;;;;;;;0.07;0.07;;;11.90;99.90;;;;;;5063279;28;20184;-77
2023/10/28 02:20:16;;;;;;;0.00;0.00;;;11.90;99.90;;;;;;5066827;28;21039;-77
2023/10/28 02:22:42;;;;;;;0.10;0.10;;;11.80;99.90;;;;;;5061228;28;20595;-77
2023/10/28 02:25:08;;;;;;;0.10;0.10;;;11.70;99.90;;;;;;5066613;28;20181;-77
2023/10/28 02:27:34;;;;;;;9.10;7.63;;;11.70;99.90;;;;;;5067765;28;20293;-77
2023/10/28 02:29:59;;;;;;;0.10;0.10;;;11.60;99.90;;;;;;5067665;28;20698;-77
2023/10/28 02:32:25;;;;;;;0.10;0.10;;;11.60;99.90;;;;;;5067388;28;20548;-76
2023/10/28 02:34:50;;;;;;;0.10;0.10;;;11.50;99.90;;;;;;5062978;28;20189;-76
2023/10/28 02:37:16;;;;;;;0.10;0.10;;;11.50;99.90;;;;;;5065447;28;20196;-77
2023/10/28 02:39:42;;;;;;;0.10;0.10;;;11.50;99.90;;;;;;5066728;28;20207;-77
2023/10/28 02:42:07;;;;;;;0.10;0.10;;;11.40;99.90;;;;;;5067464;28;20212;-76
2023/10/28 02:44:33;;;;;;;0.03;0.03;;;11.40;99.90;;;;;;5068196;28;20188;-76
2023/10/28 02:46:59;;;;;;;0.07;0.07;;;11.50;99.90;;;;;;5064333;28;20239;-77
2023/10/28 02:49:25;;;;;;;0.10;0.10;;;11.50;99.90;;;;;;5066739;28;20203;-76
2023/10/28 02:51:50;;;;;;;0.00;0.00;;;11.40;99.90;;;;;;5066087;28;20232;-77
2023/10/28 02:54:16;;;;;;;0.07;0.07;;;11.40;99.90;;;;;;5068543;28;20746;-77
2023/10/28 02:56:42;;;;;;;0.10;0.10;;;11.40;99.90;;;;;;5064671;28;20177;-77
2023/10/28 02:59:08;;;;;;;0.10;0.10;;;11.30;99.90;;;;;;5068780;28;20585;-77
2023/10/28 03:01:38;;;;;;;0.10;0.10;;;11.20;99.90;;;;;;5068095;28;20216;-77
2023/10/28 03:04:04;;;;;;;0.10;0.10;;;11.10;99.90;;;;;;5067998;28;20192;-77
2023/10/28 03:06:30;;;;;;;0.10;0.10;;;11.00;99.90;;;;;;5061863;28;20668;-77
2023/10/28 03:08:55;;;;;;;0.10;0.10;;;10.90;99.90;;;;;;5067040;28;20182;-77
2023/10/28 03:11:21;;;;;;;0.10;0.10;;;10.90;99.90;;;;;;5066552;28;20216;-76
2023/10/28 03:13:46;;;;;;;0.07;0.07;;;10.80;99.90;;;;;;5063383;28;20234;-77
2023/10/28 03:16:12;;;;;;;0.10;0.10;;;10.70;99.90;;;;;;5065604;28;20250;-77
2023/10/28 03:18:38;;;;;;;0.00;0.00;;;10.70;99.90;;;;;;5067396;28;20188;-77
2023/10/28 03:21:04;;;;;;;0.10;0.10;;;10.60;99.90;;;;;;5066676;28;20205;-77
2023/10/28 03:23:30;;;;;;;0.07;0.07;;;10.60;99.90;;;;;;5068851;28;20213;-77
2023/10/28 03:25:55;;;;;;;0.00;0.00;;;10.60;99.90;;;;;;5070777;28;20188;-77
2023/10/28 03:28:21;;;;;;;0.10;0.10;;;10.80;99.90;;;;;;5071887;28;20189;-77
2023/10/28 03:30:47;;;;;;;0.10;0.10;;;10.80;99.90;;;;;;5067391;28;20288;-77
2023/10/28 03:33:12;;;;;;;0.10;0.10;;;10.80;99.90;;;;;;5070080;28;20613;-76
2023/10/28 03:35:38;;;;;;;0.00;0.00;;;10.90;99.90;;;;;;5071502;28;20192;-76
2023/10/28 03:38:04;;;;;;;0.10;0.10;;;11.00;99.90;;;;;;5070006;28;20605;-76
2023/10/28 03:40:29;;;;;;;0.00;0.00;;;10.90;99.90;;;;;;5068822;28;20295;-77
2023/10/28 03:42:55;;;;;;;0.10;0.10;;;10.90;99.90;;;;;;5073549;28;20215;-77
2023/10/28 03:45:20;;;;;;;0.10;0.10;;;10.90;99.90;;;;;;5072043;28;20173;-77
2023/10/28 03:47:46;;;;;;;0.10;0.10;;;10.90;99.90;;;;;;5063026;28;20635;-77
2023/10/28 03:50:11;;;;;;;0.00;0.00;;;11.00;99.90;;;;;;5067306;28;20246;-76
2023/10/28 03:52:37;;;;;;;0.10;0.10;;;11.00;99.90;;;;;;5070125;28;20185;-76
2023/10/28 03:55:03;;;;;;;0.07;0.07;;;11.00;99.90;;;;;;5064490;28;20652;-76
2023/10/28 03:57:28;;;;;;;0.10;0.10;;;11.10;99.90;;;;;;5062995;28;20219;-76
2023/10/28 03:59:54;;;;;;;0.10;0.10;;;11.10;99.90;;;;;;5065456;28;20577;-76
2023/10/28 04:02:20;;;;;;;0.10;0.10;;;11.10;99.90;;;;;;5065094;28;20205;-77
2023/10/28 04:04:45;;;;;;;0.10;0.10;;;11.20;99.90;;;;;;5063477;28;20185;-77
2023/10/28 04:07:11;;;;;;;0.00;0.00;;;11.20;99.90;;;;;;5070353;28;20236;-77
2023/10/28 04:09:37;;;;;;;0.00;0.00;;;11.30;99.90;;;;;;5069249;28;20201;-77
2023/10/28 04:12:05;;;;;;;0.10;0.10;;;11.20;99.90;;;;;;5070445;28;20777;-77
2023/10/28 04:14:31;;;;;;;0.10;0.10;;;11.20;99.90;;;;;;5067597;28;20181;-77
2023/10/28 04:16:57;;;;;;;0.10;0.10;;;11.20;99.90;;;;;;5069520;28;20867;-77
2023/10/28 04:19:23;;;;;;;0.03;0.03;;;11.10;99.90;;;;;;5070110;28;20272;-77
2023/10/28 04:21:49;;;;;;;0.10;0.10;;;11.10;99.90;;;;;;5063291;28;20208;-77
2023/10/28 04:24:14;;;;;;;0.00;0.00;;;11.10;99.90;;;;;;5072978;28;20177;-79
2023/10/28 04:26:39;;;;;;;0.00;0.00;;;11.10;99.90;;;;;;5067608;28;20192;-77
2023/10/28 04:29:05;;;;;;;0.10;0.10;;;11.20;99.90;;;;;;5062823;28;20196;-77
2023/10/28 04:31:31;;;;;;;0.10;0.10;;;11.20;99.90;;;;;;5066971;28;20292;-77
2023/10/28 04:33:56;;;;;;;0.10;0.10;;;11.20;99.90;;;;;;5070362;28;20181;-77
2023/10/28 04:36:22;;;;;;;0.03;0.03;;;11.30;99.90;;;;;;5068478;28;20442;-77
2023/10/28 04:38:48;;;;;;;0.10;0.10;;;11.40;99.90;;;;;;5073966;28;20213;-77
2023/10/28 04:41:14;;;;;;;0.10;0.10;;;11.40;99.90;;;;;;5064006;28;20301;-77
2023/10/28 04:43:39;;;;;;;0.10;0.10;;;11.40;99.90;;;;;;5066108;28;20212;-77
2023/10/28 04:46:05;;;;;;;0.10;0.10;;;11.40;99.90;;;;;;5068829;28;20189;-78
2023/10/28 04:48:32;;;;;;;0.10;0.10;;;11.50;99.90;;;;;;5069711;28;20747;-77
2023/10/28 04:50:58;;;;;;;0.10;0.10;;;11.50;99.90;;;;;;5061850;28;20324;-77
2023/10/28 04:53:23;;;;;;;0.10;0.10;;;11.50;99.90;;;;;;5069188;28;20685;-77
2023/10/28 04:55:50;;;;;;;0.07;0.07;;;11.60;99.90;;;;;;5065365;28;20246;-76
2023/10/28 04:58:15;;;;;;;0.10;0.10;;;11.60;99.90;;;;;;5068295;28;20184;-77
2023/10/28 05:00:41;;;;;;;0.10;0.10;;;11.70;99.90;;;;;;5066467;28;20209;-78
2023/10/28 05:03:07;;;;;;;0.10;0.10;;;11.70;99.90;;;;;;5062944;28;20204;-77
2023/10/28 05:05:32;;;;;;;0.10;0.10;;;11.80;99.90;;;;;;5062383;28;20193;-77
2023/10/28 05:07:58;;;;;;;0.10;0.10;;;11.80;99.90;;;;;;5067376;28;20231;-77
2023/10/28 05:10:24;;;;;;;0.10;0.10;;;11.80;99.90;;;;;;5061588;28;20691;-77
2023/10/28 05:12:49;;;;;;;0.10;0.10;;;11.80;99.90;;;;;;5065340;28;20208;-78
2023/10/28 05:15:15;;;;;;;0.10;0.10;;;11.80;99.90;;;;;;5067767;28;20194;-76
2023/10/28 05:17:41;;;;;;;0.07;0.07;;;11.80;99.90;;;;;;5063708;28;20189;-77
2023/10/28 05:20:08;;;;;;;0.00;0.00;;;11.70;99.90;;;;;;5065048;28;20206;-77
2023/10/28 05:22:35;;;;;;;0.10;0.10;;;11.70;99.90;;;;;;5060726;28;20266;-78
2023/10/28 05:25:00;;;;;;;0.10;0.10;;;11.70;99.90;;;;;;5069038;28;20196;-78
2023/10/28 05:27:26;;;;;;;0.10;0.10;;;11.80;99.90;;;;;;5068083;28;20264;-77
2023/10/28 05:29:51;;;;;;;0.10;0.10;;;11.80;99.90;;;;;;5062872;28;20608;-78
2023/10/28 05:32:17;;;;;;;0.10;0.10;;;11.90;99.90;;;;;;5064653;28;20193;-78
2023/10/28 05:34:43;;;;;;;0.10;0.10;;;11.90;99.90;;;;;;5064950;28;20561;-77
2023/10/28 05:37:09;;;;;;;0.10;0.10;;;11.90;99.90;;;;;;5065711;28;20206;-77
2023/10/28 05:39:34;;;;;;;0.00;0.00;;;11.70;99.90;;;;;;5071324;28;20700;-77
2023/10/28 05:42:00;;;;;;;0.10;0.10;;;11.60;99.90;;;;;;5071123;28;20235;-78
2023/10/28 05:44:25;;;;;;;0.10;0.10;;;11.70;99.90;;;;;;5066783;28;20181;-77
2023/10/28 05:46:51;;;;;;;0.10;0.10;;;11.80;99.90;;;;;;5067915;28;20283;-77
2023/10/28 05:49:16;;;;;;;0.10;0.10;;;11.70;99.90;;;;;;5068508;28;20261;-77
2023/10/28 05:51:43;;;;;;;0.10;0.10;;;11.60;99.90;;;;;;5063441;28;20297;-77
2023/10/28 05:54:11;;;;;;;0.10;0.10;;;11.70;99.90;;;;;;5068263;28;20661;-77
2023/10/28 05:56:36;;;;;;;0.10;0.10;;;11.70;99.90;;;;;;5066726;28;20560;-77
2023/10/28 05:59:02;;;;;;;0.10;0.10;;;11.50;99.90;;;;;;5060807;28;20182;-77
2023/10/28 06:01:27;;;;;;;0.10;0.10;;;11.70;99.90;;;;;;5083111;28;20234;-78
2023/10/28 06:03:53;;;;;;;0.10;0.10;;;11.70;99.90;;;;;;5067922;28;20296;-77
2023/10/28 06:06:18;;;;;;;0.10;0.10;;;11.80;99.90;;;;;;5064196;28;20192;-77
2023/10/28 06:08:44;;;;;;;0.10;0.10;;;11.90;99.90;;;;;;5067467;28;20797;-77
2023/10/28 06:11:10;;;;;;;0.10;0.10;;;11.80;99.90;;;;;;5062271;28;20213;-77
2023/10/28 06:13:36;;;;;;;0.10;0.10;;;11.80;99.90;;;;;;5067347;28;20189;-77
2023/10/28 06:16:01;;;;;;;0.10;0.10;;;11.90;99.90;;;;;;5060212;28;20181;-78
2023/10/28 06:18:27;;;;;;;0.10;0.10;;;11.80;99.90;;;;;;5066545;28;20664;-78
2023/10/28 06:20:53;;;;;;;0.10;0.10;;;11.80;99.90;;;;;;5063898;28;20201;-78
2023/10/28 06:23:18;;;;;;;0.10;0.10;;;11.80;99.90;;;;;;5063373;28;20209;-78
2023/10/28 06:25:44;;;;;;;0.10;0.10;;;11.90;99.90;;;;;;5062618;28;20184;-78
2023/10/28 06:28:10;;;;;;;0.10;0.10;;;12.00;99.90;;;;;;5060413;28;20644;-78
2023/10/28 06:30:37;;;;;;;0.10;0.10;;;12.00;99.90;;;;;;5058189;28;20568;-78
2023/10/28 06:33:02;;;;;;;0.10;0.10;;;12.00;99.90;;;;;;5066119;28;21161;-78
2023/10/28 06:35:28;;;;;;;0.10;0.10;;;12.10;99.90;;;;;;5060193;28;20268;-78
2023/10/28 06:37:54;;;;;;;0.10;0.10;;;12.10;99.90;;;;;;5058423;28;20566;-78
2023/10/28 06:40:20;;;;;;;0.10;0.10;;;12.10;99.90;;;;;;5067312;28;20214;-78
2023/10/28 06:42:45;;;;;;;0.10;0.10;;;12.10;99.90;;;;;;5066341;28;20200;-78
2023/10/28 06:45:11;;;;;;;0.10;0.10;;;12.10;99.90;;;;;;5068076;28;20181;-78
2023/10/28 06:47:36;;;;;;;0.10;0.10;;;12.10;99.90;;;;;;5066805;28;20208;-78
2023/10/28 06:50:04;;;;;;;0.10;0.10;;;12.20;99.90;;;;;;5065846;28;20229;-78
2023/10/28 06:52:31;;;;;;;0.10;0.10;;;12.20;99.90;;;;;;5062070;28;20183;-77
2023/10/28 06:54:59;;;;;;;0.07;0.07;;;12.20;99.90;;;;;;5070917;28;20736;-78
2023/10/28 06:57:24;;;;;;;0.00;0.00;;;12.30;99.90;;;;;;5068701;28;20200;-78
2023/10/28 06:59:50;;;;;;;0.10;0.10;;;12.30;99.90;;;;;;5070992;28;20209;-78
2023/10/28 07:02:15;;;;;;;0.10;0.10;;;12.30;99.90;;;;;;5071742;28;20197;-78
2023/10/28 07:04:41;;;;;;;0.10;0.10;;;12.20;99.90;;;;;;5065072;28;20181;-78
2023/10/28 07:07:12;;;;;;;0.00;0.00;;;12.20;99.90;;;;;;5069843;28;20185;-78
2023/10/28 07:09:38;;;;;;;0.10;0.10;;;12.30;99.90;;;;;;5071242;28;20204;-78
2023/10/28 07:12:04;;;;;;;0.10;0.10;;;12.30;99.90;;;;;;5065212;28;20313;-78
2023/10/28 07:14:29;;;;;;;0.00;0.00;;;12.30;99.90;;;;;;5070985;28;20177;-78
2023/10/28 07:16:55;;;;;;;0.10;0.10;;;12.40;99.90;;;;;;5063863;28;20281;-78
2023/10/28 07:19:21;;;;;;;0.10;0.10;;;12.30;99.90;;;;;;5067273;28;20221;-78
2023/10/28 07:21:46;;;;;;;0.10;0.10;;;12.30;99.90;;;;;;5066404;28;20688;-78
2023/10/28 07:24:12;;;;;;;0.10;0.10;;;12.30;99.90;;;;;;5071709;28;20186;-78
2023/10/28 07:26:38;;;;;;;0.00;0.00;;;12.40;99.90;;;;;;5071367;28;20178;-78
2023/10/28 07:29:06;;;;;;;0.07;0.07;;;12.40;99.90;;;;;;5070654;28;20181;-78
2023/10/28 07:31:31;;;;;;;0.10;0.10;;;12.40;99.90;;;;;;5068113;28;20206;-78
2023/10/28 07:33:57;;;;;;;0.10;0.10;;;12.40;99.90;;;;;;5070672;28;20190;-78
2023/10/28 07:36:23;;;;;;;0.10;0.10;;;12.40;99.90;;;;;;5071470;28;20217;-78
2023/10/28 07:38:49;;;;;;;0.10;0.10;;;12.50;99.90;;;;;;5069773;28;20200;-78
2023/10/28 07:41:14;;;;;;;0.03;0.03;;;12.50;99.90;;;;;;5059735;28;21178;-78
2023/10/28 07:43:40;;;;;;;0.10;0.10;;;12.40;99.90;;;;;;5065941;28;20200;-78
2023/10/28 07:46:05;;;;;;;0.10;0.10;;;12.50;99.90;;;;;;5069066;28;20803;-78
2023/10/28 07:48:31;;;;;;;0.10;0.10;;;12.50;99.90;;;;;;5069582;28;20389;-78
2023/10/28 07:50:56;;;;;;;0.10;0.10;;;12.60;99.90;;;;;;5067622;28;20285;-77
2023/10/28 07:53:22;;;;;;;0.10;0.10;;;12.50;99.90;;;;;;5065463;28;20181;-78
2023/10/28 07:55:48;;;;;;;0.10;0.10;;;12.50;99.90;;;;;;5070387;28;20207;-78
2023/10/28 07:58:13;;;;;;;0.10;0.10;;;12.60;99.90;;;;;;5068698;28;20199;-78
2023/10/28 08:00:39;;;;;;;0.10;0.10;;;12.60;99.90;;;;;;5068291;28;20277;-78
2023/10/28 08:03:04;;;;;;;0.10;0.10;;;12.60;99.90;;;;;;5065561;28;20217;-78
2023/10/28 08:05:30;;;;;;;0.10;0.10;;;12.60;99.90;;;;;;5069110;28;20694;-78
2023/10/28 08:07:56;;;;;;;0.10;0.10;;;12.70;99.90;;;;;;5062808;28;20185;-79
2023/10/28 08:10:24;;;;;;;0.10;0.10;;;12.80;99.90;;;;;;5068487;28;20229;-78
2023/10/28 08:12:54;;;;;;;0.10;0.10;;;12.90;99.90;;;;;;5070030;28;20191;-78
2023/10/28 08:15:23;;;;;;;0.10;0.10;;;12.90;99.90;;;;;;5068709;28;20489;-78
2023/10/28 08:17:50;;;;;;;0.10;0.10;;;12.80;99.90;;;;;;5062254;28;20213;-78
2023/10/28 08:20:17;;;;;;;0.10;0.10;;;12.90;99.90;;;;;;5069446;28;20206;-78
2023/10/28 08:22:44;;;;;;;0.10;0.10;;;12.80;99.90;;;;;;5064841;28;20209;-78
2023/10/28 08:25:11;;;;;;;0.10;0.10;;;13.00;99.90;;;;;;5067056;28;20180;-78
2023/10/28 08:27:37;;;;;;;0.10;0.10;;;13.00;99.90;;;;;;5062559;28;20201;-78
2023/10/28 08:30:03;;;;;;;0.10;0.10;;;13.20;99.90;;;;;;5067899;28;20193;-78
2023/10/28 08:32:31;;;;;;;0.10;0.10;;;13.30;99.90;;;;;;5063973;28;20268;-78
2023/10/28 08:34:56;;;;;;;0.10;0.10;;;13.30;99.90;;;;;;5062915;28;20188;-78
2023/10/28 08:37:23;;;;;;;0.10;0.10;;;13.20;99.90;;;;;;5060393;28;20188;-78
2023/10/28 08:39:48;;;;;;;0.10;0.10;;;13.20;99.90;;;;;;5064803;28;20203;-78
2023/10/28 08:42:14;;;;;;;0.10;0.10;;;13.20;99.90;;;;;;5069754;28;20208;-78
2023/10/28 08:44:42;;;;;;;0.10;0.10;;;13.20;99.90;;;;;;5066533;28;20736;-78
2023/10/28 08:47:08;;;;;;;0.10;0.10;;;13.20;99.90;;;;;;5063027;28;20187;-78
2023/10/28 08:49:42;;;;;;;0.10;0.10;;;13.10;99.90;;;;;;5060854;28;20197;-78
2023/10/28 08:52:11;;;;;;;0.10;0.10;;;13.10;99.90;;;;;;5068624;28;20593;-78
2023/10/28 08:54:38;;;;;;;0.03;0.03;;;13.10;99.90;;;;;;5069346;28;20178;-78
2023/10/28 08:57:04;;;;;;;0.10;0.10;;;13.10;99.90;;;;;;5062172;28;20186;-79
2023/10/28 08:59:30;;;;;;;0.10;0.10;;;13.20;99.90;;;;;;5062996;28;20188;-78
2023/10/28 09:01:57;;;;;;;0.10;0.10;;;13.30;99.90;;;;;;5061596;28;20232;-79
2023/10/28 09:04:24;;;;;;;0.10;0.10;;;13.30;99.90;;;;;;5066035;28;20187;-77
2023/10/28 09:06:52;;;;;;;0.10;0.10;;;13.40;99.90;;;;;;5064609;28;20180;-78
2023/10/28 09:09:21;;;;;;;0.10;0.10;;;13.50;99.90;;;;;;5064116;28;20236;-79
2023/10/28 09:11:47;;;;;;;0.10;0.10;;;13.60;99.90;;;;;;5067663;28;20188;-78
2023/10/28 09:14:13;;;;;;;0.10;0.10;;;13.50;99.90;;;;;;5067922;28;20187;-78
2023/10/28 09:16:38;;;;;;;0.10;0.10;;;13.50;99.90;;;;;;5067087;28;20176;-77
2023/10/28 09:19:05;;;;;;;0.10;0.10;;;13.50;99.90;;;;;;5067101;28;20556;-78
2023/10/28 09:21:31;;;;;;;0.10;0.10;;;13.50;99.90;;;;;;5065331;28;20210;-78
2023/10/28 09:24:00;;;;;;;0.00;0.00;;;13.50;99.90;;;;;;5064680;28;20207;-78
2023/10/28 09:26:27;;;;;;;0.10;0.10;;;13.50;99.90;;;;;;5068435;28;20184;-78
2023/10/28 09:28:52;;;;;;;0.10;0.10;;;13.60;99.90;;;;;;5067344;28;20290;-78
2023/10/28 09:31:28;;;;;;;0.10;0.10;;;13.60;99.90;;;;;;5063187;28;20223;-78
2023/10/28 09:33:55;;;;;;;0.10;0.10;;;13.80;99.90;;;;;;5067240;28;20214;-78
2023/10/28 09:36:21;;;;;;;0.10;0.10;;;13.80;99.90;;;;;;5060293;28;20294;-78
2023/10/28 09:38:47;;;;;;;0.10;0.10;;;13.90;99.90;;;;;;5065120;28;20188;-78
2023/10/28 09:41:13;;;;;;;0.00;0.00;;;14.10;99.90;;;;;;5066305;28;20666;-79
2023/10/28 09:43:39;;;;;;;0.00;0.00;;;14.30;99.90;;;;;;5064307;28;21154;-79
2023/10/28 09:46:06;;;;;;;0.10;0.10;;;14.30;99.90;;;;;;5058206;28;20188;-79
2023/10/28 09:48:45;;;;;;;0.07;0.07;;;14.40;99.90;;;;;;5064701;28;20192;-79
2023/10/28 09:51:13;;;;;;;0.00;0.00;;;14.40;99.90;;;;;;5058821;28;20610;-79
2023/10/28 09:53:43;;;;;;;0.10;0.10;;;14.40;99.90;;;;;;5065051;28;20190;-79
2023/10/28 09:56:12;;;;;;;0.10;0.10;;;14.50;99.90;;;;;;5059827;28;20203;-79
2023/10/28 09:58:54;;;;;;;0.10;0.10;;;14.40;99.90;;;;;;5066377;28;20192;-79
2023/10/28 10:01:35;;;;;;;0.10;0.10;;;14.30;99.90;;;;;;5067517;28;20211;-79
2023/10/28 10:04:08;;;;;;;0.03;0.03;;;14.30;99.90;;;;;;5063814;28;20333;-78
2023/10/28 10:06:37;;;;;;;0.10;0.10;;;14.20;99.90;;;;;;5061105;28;20267;-78
2023/10/28 10:09:05;;;;;;;0.10;0.10;;;14.20;99.90;;;;;;5060892;28;20279;-78
2023/10/28 10:11:32;;;;;;;0.10;0.10;;;14.20;99.90;;;;;;5067543;28;20255;-78
2023/10/28 10:14:08;;;;;;;0.10;0.10;;;14.10;99.90;;;;;;5067825;28;20184;-78
2023/10/28 10:17:09;;;;;;;0.10;0.10;;;14.10;99.90;;;;;;5067554;28;20743;-78
2023/10/28 10:19:35;;;;;;;0.10;0.10;;;14.10;99.90;;;;;;5067108;28;20304;-78
2023/10/28 10:22:06;;;;;;;0.10;0.10;;;14.10;99.90;;;;;;5065117;28;20597;-78
2023/10/28 10:24:32;;;;;;;0.10;0.10;;;14.10;99.90;;;;;;5065754;28;20194;-78
2023/10/28 10:26:59;;;;;;;0.10;0.10;;;14.20;99.90;;;;;;5061446;28;20183;-79
2023/10/28 10:29:29;;;;;;;0.10;0.10;;;14.40;99.90;;;;;;5072325;28;20183;-79
2023/10/28 10:31:57;;;;;;;0.10;0.10;;;14.50;99.90;;;;;;5066805;28;20232;-79
2023/10/28 10:34:45;;;;;;;0.10;0.10;;;14.50;99.90;;;;;;5071780;28;20199;-79
2023/10/28 10:37:22;;;;;;;0.10;0.10;;;14.60;99.90;;;;;;5072820;28;20183;-79
2023/10/28 10:39:47;;;;;;;0.10;0.10;;;14.80;99.90;;;;;;5072020;28;20208;-79
2023/10/28 10:42:13;;;;;;;0.10;0.10;;;14.90;99.90;;;;;;5074010;28;21146;-79
2023/10/28 10:44:40;;;;;;;0.10;0.10;;;14.90;99.90;;;;;;5068230;28;20191;-79
2023/10/28 10:47:10;;;;;;;0.10;0.10;;;14.90;99.90;;;;;;5065766;28;20189;-79
2023/10/28 10:49:38;;;;;;;0.10;0.10;;;14.70;99.90;;;;;;5064695;28;20598;-79
2023/10/28 10:52:05;;;;;;;0.10;0.10;;;14.60;99.90;;;;;;5068408;28;20184;-79
2023/10/28 10:54:33;;;;;;;0.10;0.10;;;14.70;99.90;;;;;;5065863;28;20180;-79
2023/10/28 10:56:59;;;;;;;0.10;0.10;;;14.60;99.90;;;;;;5064996;28;20183;-79
2023/10/28 10:59:28;;;;;;;0.10;0.10;;;14.50;99.90;;;;;;5071642;28;20189;-79
2023/10/28 11:01:55;;;;;;;0.10;0.10;;;14.50;99.90;;;;;;5067718;28;20181;-79
2023/10/28 11:04:20;;;;;;;0.10;0.10;;;14.50;99.90;;;;;;5071243;28;20185;-79
2023/10/28 11:06:46;;;;;;;0.10;0.10;;;14.60;99.90;;;;;;5069073;28;20188;-79
2023/10/28 11:09:15;;;;;;;0.10;0.10;;;14.60;99.90;;;;;;5070981;28;20204;-78
2023/10/28 11:11:41;;;;;;;0.10;0.10;;;14.60;99.90;;;;;;5065818;28;20587;-78
2023/10/28 11:14:07;;;;;;;0.00;0.00;;;14.60;99.90;;;;;;5073915;28;20252;-78
2023/10/28 11:16:33;;;;;;;0.10;0.10;;;14.70;99.90;;;;;;5077620;28;20663;-79
2023/10/28 11:19:03;;;;;;;0.10;0.10;;;14.70;99.90;;;;;;5075931;28;20180;-79
2023/10/28 11:21:30;;;;;;;0.10;0.10;;;14.60;99.90;;;;;;5073467;28;20314;-79
2023/10/28 11:23:56;;;;;;;0.10;0.10;;;14.60;99.90;;;;;;5072066;28;20223;-79
2023/10/28 11:26:23;;;;;;;0.10;0.10;;;14.60;99.90;;;;;;5071416;28;20615;-79
2023/10/28 11:28:48;;;;;;;0.10;0.10;;;14.60;99.90;;;;;;5074834;28;20188;-79
2023/10/28 11:31:18;;;;;;;11.33;10.67;;;14.70;99.90;;;;;;5074823;28;20291;-79
2023/10/28 11:33:45;;;;;;;0.10;0.10;;;14.80;99.90;;;;;;5075173;28;20211;-79
2023/10/28 11:36:11;;;;;;;0.00;0.00;;;14.90;99.90;;;;;;5071844;28;20199;-79
2023/10/28 11:38:37;;;;;;;0.10;0.10;;;14.90;99.90;;;;;;5061289;28;20565;-78
2023/10/28 11:41:07;;;;;;;0.10;0.10;;;14.80;99.90;;;;;;5068764;28;20275;-78
2023/10/28 11:43:34;;;;;;;0.10;0.10;;;14.70;99.90;;;;;;5067973;28;20239;-79
2023/10/28 11:45:59;;;;;;;0.10;0.10;;;14.60;99.90;;;;;;5070502;28;20188;-79
2023/10/28 11:48:26;;;;;;;0.10;0.10;;;14.50;99.90;;;;;;5070584;28;20189;-79
2023/10/28 11:50:52;;;;;;;0.10;0.10;;;14.50;99.90;;;;;;5070013;28;20296;-79
2023/10/28 11:53:28;;;;;;;0.10;0.10;;;14.30;99.90;;;;;;5071271;28;20657;-79
2023/10/28 11:55:57;;;;;;;0.10;0.10;;;14.40;99.90;;;;;;5061995;28;20223;-78
2023/10/28 11:58:26;;;;;;;0.10;0.10;;;14.40;99.90;;;;;;5065127;28;20191;-79
2023/10/28 12:00:56;;;;;;;0.10;0.10;;;14.40;99.90;;;;;;5070671;28;20207;-79
2023/10/28 12:03:22;;;;;;;0.10;0.10;;;14.50;99.90;;;;;;5067860;28;20208;-79
2023/10/28 12:05:48;;;;;;;0.10;0.10;;;14.50;99.90;;;;;;5070177;28;20211;-79
2023/10/28 12:08:13;;;;;;;0.10;0.10;;;14.30;99.90;;;;;;5062871;28;20221;-79
2023/10/28 12:10:46;;;;;;;0.10;0.10;;;14.30;99.90;;;;;;5069642;28;20306;-78
2023/10/28 12:13:17;;;;;;;0.10;0.10;;;14.30;99.90;;;;;;5062525;28;20729;-78
2023/10/28 12:15:44;;;;;;;0.10;0.10;;;14.20;99.90;;;;;;5068172;28;20230;-79
2023/10/28 12:18:09;;;;;;;0.10;0.10;;;14.20;99.90;;;;;;5086161;28;20186;-79
2023/10/28 12:20:35;;;;;;;0.10;0.10;;;14.10;99.90;;;;;;5067927;28;20227;-79
2023/10/28 12:23:01;;;;;;;0.10;0.10;;;14.10;99.90;;;;;;5068662;28;20314;-79
2023/10/28 12:25:26;;;;;;;0.10;0.10;;;14.00;99.90;;;;;;5070576;28;20191;-79
2023/10/28 12:27:52;;;;;;;0.10;0.10;;;14.00;99.90;;;;;;5070943;28;20259;-79
2023/10/28 12:30:18;;;;;;;0.10;0.10;;;14.10;99.90;;;;;;5070449;28;20212;-79
2023/10/28 12:32:44;;;;;;;0.10;0.10;;;14.00;99.90;;;;;;5069291;28;20191;-79
2023/10/28 12:35:10;;;;;;;0.10;0.10;;;14.00;99.90;;;;;;5061044;28;20228;-79
2023/10/28 12:37:36;;;;;;;0.10;0.10;;;14.10;99.90;;;;;;5063923;28;20188;-79
2023/10/28 12:40:02;;;;;;;0.10;0.10;;;14.00;99.90;;;;;;5067733;28;20210;-80
2023/10/28 12:42:27;;;;;;;0.10;0.10;;;14.10;99.90;;;;;;5069774;28;20206;-79
2023/10/28 12:44:53;;;;;;;0.10;0.10;;;14.10;99.90;;;;;;5065340;28;20200;-79